Time;durP1;ratioP1;P1;durP2;ratioP2;P2;SDS_P1;SDS_P2;PMS_P1;PMS_P2;Temp;Humidity;BMP_temperature;BMP_pressure;BME280_temperature;BME280_humidity;BME280_pressure;Samples;Min_cycle;Max_cycle;Signal;HPM_P1;HPM_P2
2023/05/21 00:00:26;;;;;;;;;;;;;;;;;;5047127;28;4610;-60
2023/05/21 00:02:51;;;;;;;;;;;;;;;;;;5047149;28;4622;-60
2023/05/21 00:05:17;;;;;;;;;;;;;;;;;;5046823;28;4455;-60
2023/05/21 00:07:42;;;;;;;;;;;;;;;;;;5047814;28;1093;-60
2023/05/21 00:10:08;;;;;;;;;;;;;;;;;;5046825;28;4460;-59
2023/05/21 00:12:33;;;;;;;;;;;;;;;;;;5046902;28;4636;-60
2023/05/21 00:15:00;;;;;;;;;;;;;;;;;;5047267;28;4480;-56
2023/05/21 00:17:25;;;;;;;;;;;;;;;;;;5047156;28;4443;-60
2023/05/21 00:19:50;;;;;;;;;;;;;;;;;;5047192;28;1607;-59
2023/05/21 00:22:16;;;;;;;;;;;;;;;;;;5046890;28;4910;-59
2023/05/21 00:24:41;;;;;;;;;;;;;;;;;;5038743;28;5108;-57
2023/05/21 00:27:06;;;;;;;;;;;;;;;;;;5043417;28;4489;-59
2023/05/21 00:29:31;;;;;;;;;;;;;;;;;;5043804;28;4989;-59
2023/05/21 00:31:57;;;;;;;;;;;;;;;;;;5043841;28;4885;-59
2023/05/21 00:34:22;;;;;;;;;;;;;;;;;;5043790;28;4480;-58
2023/05/21 00:36:47;;;;;;;;;;;;;;;;;;5044309;28;4641;-58
2023/05/21 00:39:12;;;;;;;;;;;;;;;;;;5046044;28;4932;-58
2023/05/21 00:41:41;;;;;;;;;;;;;;;;;;5046369;28;4981;-58
2023/05/21 00:44:07;;;;;;;;;;;;;;;;;;5039435;28;4451;-53
2023/05/21 00:46:33;;;;;;;;;;;;;;;;;;5079228;28;1200;-58
2023/05/21 00:48:58;;;;;;;;;;;;;;;;;;5045167;28;4653;-59
2023/05/21 00:51:24;;;;;;;;;;;;;;;;;;5044994;28;5041;-58
2023/05/21 00:53:51;;;;;;;;;;;;;;;;;;5026461;28;4554;-58
2023/05/21 00:56:16;;;;;;;;;;;;;;;;;;5046328;28;4832;-59
2023/05/21 00:58:41;;;;;;;;;;;;;;;;;;5056979;28;1204;-58
2023/05/21 01:01:12;;;;;;;;;;;;;;;;;;5044799;28;4934;-57
2023/05/21 01:03:37;;;;;;;;;;;;;;;;;;5046602;28;4439;-59
2023/05/21 01:06:06;;;;;;;;;;;;;;;;;;5046082;28;4451;-60
2023/05/21 01:08:33;;;;;;;;;;;;;;;;;;5046079;28;4546;-60
2023/05/21 01:10:58;;;;;;;;;;;;;;;;;;5044749;28;2168;-60
2023/05/21 01:13:23;;;;;;;;;;;;;;;;;;5046269;28;5400;-60
2023/05/21 01:15:49;;;;;;;;;;;;;;;;;;5046263;28;4616;-59
2023/05/21 01:18:14;;;;;;;;;;;;;;;;;;5046832;28;4652;-60
2023/05/21 01:20:41;;;;;;;;;;;;;;;;;;5045219;28;4497;-60
2023/05/21 01:23:06;;;;;;;;;;;;;;;;;;5044019;28;1210;-59
2023/05/21 01:25:31;;;;;;;;;;;;;;;;;;5054107;28;4560;-61
2023/05/21 01:27:57;;;;;;;;;;;;;;;;;;5046565;28;4883;-60
2023/05/21 01:30:22;;;;;;;;;;;;;;;;;;5046701;28;4566;-59
2023/05/21 01:32:48;;;;;;;;;;;;;;;;;;5046881;28;5252;-60
2023/05/21 01:35:16;;;;;;;;;;;;;;;;;;5049142;28;4548;-60
2023/05/21 01:37:58;;;;;;;;;;;;;;;;;;5037333;28;1212;-59
2023/05/21 01:40:23;;;;;;;;;;;;;;;;;;5065269;28;4463;-60
2023/05/21 01:42:49;;;;;;;;;;;;;;;;;;5049667;28;4984;-60
2023/05/21 01:45:14;;;;;;;;;;;;;;;;;;5049996;28;4609;-59
2023/05/21 01:47:40;;;;;;;;;;;;;;;;;;5049981;28;4459;-59
2023/05/21 01:50:05;;;;;;;;;;;;;;;;;;5048560;28;1173;-59
2023/05/21 01:52:31;;;;;;;;;;;;;;;;;;5048073;28;4423;-59
2023/05/21 01:54:56;;;;;;;;;;;;;;;;;;5044864;28;4446;-59
2023/05/21 01:57:21;;;;;;;;;;;;;;;;;;5049448;28;5042;-60
2023/05/21 01:59:46;;;;;;;;;;;;;;;;;;5049772;28;5002;-59
2023/05/21 02:02:12;;;;;;;;;;;;;;;;;;5049556;28;4478;-60
2023/05/21 02:04:40;;;;;;;;;;;;;;;;;;5050187;28;1288;-60
2023/05/21 02:07:05;;;;;;;;;;;;;;;;;;5049655;28;4622;-60
2023/05/21 02:09:31;;;;;;;;;;;;;;;;;;5049417;28;4959;-59
2023/05/21 02:11:57;;;;;;;;;;;;;;;;;;5049671;28;5036;-59
2023/05/21 02:14:24;;;;;;;;;;;;;;;;;;5049314;28;4794;-60
2023/05/21 02:16:49;;;;;;;;;;;;;;;;;;5049199;28;1483;-59
2023/05/21 02:19:14;;;;;;;;;;;;;;;;;;5048776;28;4779;-59
2023/05/21 02:21:39;;;;;;;;;;;;;;;;;;5048989;28;5247;-59
2023/05/21 02:24:05;;;;;;;;;;;;;;;;;;5042857;28;4584;-59
2023/05/21 02:26:30;;;;;;;;;;;;;;;;;;5078885;28;4466;-59
2023/05/21 02:28:56;;;;;;;;;;;;;;;;;;5049357;28;2009;-58
2023/05/21 02:31:21;;;;;;;;;;;;;;;;;;5049359;28;5152;-59
2023/05/21 02:33:46;;;;;;;;;;;;;;;;;;5049005;28;4487;-60
2023/05/21 02:36:12;;;;;;;;;;;;;;;;;;5049066;28;5025;-59
2023/05/21 02:38:42;;;;;;;;;;;;;;;;;;5049178;28;4521;-59
2023/05/21 02:41:07;;;;;;;;;;;;;;;;;;5049019;28;5084;-57
2023/05/21 02:43:32;;;;;;;;;;;;;;;;;;5049179;28;1116;-60
2023/05/21 02:45:57;;;;;;;;;;;;;;;;;;5049688;28;4996;-61
2023/05/21 02:48:23;;;;;;;;;;;;;;;;;;5048993;28;4916;-61
2023/05/21 02:50:48;;;;;;;;;;;;;;;;;;5049239;28;4449;-60
2023/05/21 02:53:13;;;;;;;;;;;;;;;;;;5048911;28;4669;-59
2023/05/21 02:55:38;;;;;;;;;;;;;;;;;;5042925;28;1670;-59
2023/05/21 02:58:04;;;;;;;;;;;;;;;;;;5047338;28;5015;-59
2023/05/21 03:00:29;;;;;;;;;;;;;;;;;;5048735;28;4976;-59
2023/05/21 03:02:54;;;;;;;;;;;;;;;;;;5048386;28;4694;-61
2023/05/21 03:05:20;;;;;;;;;;;;;;;;;;5048446;28;4645;-59
2023/05/21 03:07:45;;;;;;;;;;;;;;;;;;5049595;28;1155;-58
2023/05/21 03:10:11;;;;;;;;;;;;;;;;;;5046678;28;5185;-56
2023/05/21 03:12:36;;;;;;;;;;;;;;;;;;5048323;28;5041;-59
2023/05/21 03:15:02;;;;;;;;;;;;;;;;;;5046393;28;4653;-59
2023/05/21 03:17:27;;;;;;;;;;;;;;;;;;5048129;28;4615;-60
2023/05/21 03:19:53;;;;;;;;;;;;;;;;;;5048617;28;1213;-59
2023/05/21 03:22:18;;;;;;;;;;;;;;;;;;5046635;28;5069;-60
2023/05/21 03:24:44;;;;;;;;;;;;;;;;;;5044560;28;4692;-58
2023/05/21 03:27:09;;;;;;;;;;;;;;;;;;5047997;28;4505;-59
2023/05/21 03:29:35;;;;;;;;;;;;;;;;;;5047554;28;4505;-59
2023/05/21 03:32:00;;;;;;;;;;;;;;;;;;5046400;28;4967;-59
2023/05/21 03:34:25;;;;;;;;;;;;;;;;;;5047917;28;4866;-59
2023/05/21 03:36:51;;;;;;;;;;;;;;;;;;5046302;28;4496;-58
2023/05/21 03:39:16;;;;;;;;;;;;;;;;;;5047547;28;5344;-58
2023/05/21 03:41:41;;;;;;;;;;;;;;;;;;5047447;28;4472;-58
2023/05/21 03:44:07;;;;;;;;;;;;;;;;;;5048304;28;1138;-60
2023/05/21 03:46:32;;;;;;;;;;;;;;;;;;5047707;28;4402;-60
2023/05/21 03:48:57;;;;;;;;;;;;;;;;;;5047958;28;4412;-60
2023/05/21 03:51:23;;;;;;;;;;;;;;;;;;5047550;28;4840;-60
2023/05/21 03:53:49;;;;;;;;;;;;;;;;;;5046833;28;4629;-60
2023/05/21 03:56:14;;;;;;;;;;;;;;;;;;5046968;28;4597;-59
2023/05/21 03:58:39;;;;;;;;;;;;;;;;;;5047461;28;1190;-59
2023/05/21 04:01:05;;;;;;;;;;;;;;;;;;5047283;28;4787;-59
2023/05/21 04:03:34;;;;;;;;;;;;;;;;;;5047183;28;4446;-59
2023/05/21 04:06:00;;;;;;;;;;;;;;;;;;5043022;28;4701;-59
2023/05/21 04:08:25;;;;;;;;;;;;;;;;;;5047401;28;4970;-59
2023/05/21 04:10:50;;;;;;;;;;;;;;;;;;5047601;28;1096;-62
2023/05/21 04:13:16;;;;;;;;;;;;;;;;;;5046824;28;5086;-61
2023/05/21 04:15:43;;;;;;;;;;;;;;;;;;5045538;28;4489;-59
2023/05/21 04:18:09;;;;;;;;;;;;;;;;;;5046828;28;5026;-59
2023/05/21 04:20:34;;;;;;;;;;;;;;;;;;5046625;28;4502;-58
2023/05/21 04:23:00;;;;;;;;;;;;;;;;;;5047352;28;1101;-60
2023/05/21 04:25:25;;;;;;;;;;;;;;;;;;5043731;28;4434;-58
2023/05/21 04:27:51;;;;;;;;;;;;;;;;;;5046648;28;4802;-60
2023/05/21 04:30:18;;;;;;;;;;;;;;;;;;5041412;28;4721;-59
2023/05/21 04:32:44;;;;;;;;;;;;;;;;;;5045033;28;5037;-60
2023/05/21 04:35:10;;;;;;;;;;;;;;;;;;5047037;28;4452;-59
2023/05/21 04:37:36;;;;;;;;;;;;;;;;;;5047690;28;1204;-60
2023/05/21 04:40:03;;;;;;;;;;;;;;;;;;5046654;28;4624;-59
2023/05/21 04:42:29;;;;;;;;;;;;;;;;;;5047177;28;4790;-59
2023/05/21 04:44:54;;;;;;;;;;;;;;;;;;5046774;28;4556;-59
2023/05/21 04:47:20;;;;;;;;;;;;;;;;;;5046611;28;4500;-59
2023/05/21 04:49:49;;;;;;;;;;;;;;;;;;5047270;28;1113;-59
2023/05/21 04:52:15;;;;;;;;;;;;;;;;;;5061741;28;4437;-59
2023/05/21 04:54:40;;;;;;;;;;;;;;;;;;5044639;28;4925;-59
2023/05/21 04:57:06;;;;;;;;;;;;;;;;;;5045413;28;4480;-59
2023/05/21 04:59:31;;;;;;;;;;;;;;;;;;5046721;28;4834;-59
2023/05/21 05:01:57;;;;;;;;;;;;;;;;;;5047085;28;1088;-59
2023/05/21 05:04:22;;;;;;;;;;;;;;;;;;5045166;28;4864;-60
2023/05/21 05:06:47;;;;;;;;;;;;;;;;;;5048617;28;4690;-59
2023/05/21 05:09:13;;;;;;;;;;;;;;;;;;5050229;28;4549;-59
2023/05/21 05:11:38;;;;;;;;;;;;;;;;;;5049500;28;4551;-59
2023/05/21 05:14:03;;;;;;;;;;;;;;;;;;5050818;28;1901;-59
2023/05/21 05:16:28;;;;;;;;;;;;;;;;;;5048762;28;4527;-60
2023/05/21 05:18:54;;;;;;;;;;;;;;;;;;5050235;28;4485;-59
2023/05/21 05:21:20;;;;;;;;;;;;;;;;;;5049087;28;5019;-60
2023/05/21 05:23:46;;;;;;;;;;;;;;;;;;5048071;28;4868;-59
2023/05/21 05:26:11;;;;;;;;;;;;;;;;;;5046027;28;4511;-58
2023/05/21 05:28:36;;;;;;;;;;;;;;;;;;5046202;28;3304;-60
2023/05/21 05:31:01;;;;;;;;;;;;;;;;;;5046996;28;4475;-59
2023/05/21 05:33:27;;;;;;;;;;;;;;;;;;5043389;28;5322;-59
2023/05/21 05:35:52;;;;;;;;;;;;;;;;;;5049747;28;4631;-60
2023/05/21 05:38:17;;;;;;;;;;;;;;;;;;5049830;28;5133;-59
2023/05/21 05:40:43;;;;;;;;;;;;;;;;;;5050608;28;1276;-60
2023/05/21 05:43:08;;;;;;;;;;;;;;;;;;5049656;28;4455;-59
2023/05/21 05:45:33;;;;;;;;;;;;;;;;;;5050095;28;4650;-59
2023/05/21 05:48:00;;;;;;;;;;;;;;;;;;5049805;28;5137;-58
2023/05/21 05:50:25;;;;;;;;;;;;;;;;;;5049972;28;4564;-60
2023/05/21 05:52:51;;;;;;;;;;;;;;;;;;5043052;28;3313;-59
2023/05/21 05:55:16;;;;;;;;;;;;;;;;;;5047091;28;4543;-59
2023/05/21 05:57:41;;;;;;;;;;;;;;;;;;5049330;28;4441;-59
2023/05/21 06:00:09;;;;;;;;;;;;;;;;;;5048039;28;4583;-60
2023/05/21 06:02:35;;;;;;;;;;;;;;;;;;5047573;28;4499;-59
2023/05/21 06:05:00;;;;;;;;;;;;;;;;;;5042677;28;3299;-61
2023/05/21 06:07:25;;;;;;;;;;;;;;;;;;5049207;28;4446;-60
2023/05/21 06:09:50;;;;;;;;;;;;;;;;;;5048961;28;4461;-60
2023/05/21 06:12:15;;;;;;;;;;;;;;;;;;5038191;28;4709;-60
2023/05/21 06:14:41;;;;;;;;;;;;;;;;;;5045804;28;4549;-59
2023/05/21 06:17:06;;;;;;;;;;;;;;;;;;5041096;28;3754;-59
2023/05/21 06:19:32;;;;;;;;;;;;;;;;;;5036405;28;4903;-55
2023/05/21 06:21:57;;;;;;;;;;;;;;;;;;5048198;28;4979;-54
2023/05/21 06:24:22;;;;;;;;;;;;;;;;;;5040723;28;4666;-56
2023/05/21 06:26:48;;;;;;;;;;;;;;;;;;5047691;28;4442;-58
2023/05/21 06:29:13;;;;;;;;;;;;;;;;;;5057269;28;5233;-56
2023/05/21 06:31:38;;;;;;;;;;;;;;;;;;5048715;28;4968;-53
2023/05/21 06:34:03;;;;;;;;;;;;;;;;;;5044619;28;4520;-56
2023/05/21 06:36:29;;;;;;;;;;;;;;;;;;5042304;28;5802;-55
2023/05/21 06:38:57;;;;;;;;;;;;;;;;;;5050099;28;4667;-56
2023/05/21 06:41:22;;;;;;;;;;;;;;;;;;5042764;28;4637;-56
2023/05/21 06:43:48;;;;;;;;;;;;;;;;;;5043296;28;3728;-57
2023/05/21 06:46:13;;;;;;;;;;;;;;;;;;5040949;28;4685;-56
2023/05/21 06:48:38;;;;;;;;;;;;;;;;;;5042600;28;5000;-57
2023/05/21 06:51:04;;;;;;;;;;;;;;;;;;5044042;28;4931;-54
2023/05/21 06:53:29;;;;;;;;;;;;;;;;;;5043423;28;4873;-54
2023/05/21 06:55:54;;;;;;;;;;;;;;;;;;5039081;28;3282;-54
2023/05/21 06:58:20;;;;;;;;;;;;;;;;;;5048586;28;4452;-55
2023/05/21 07:00:46;;;;;;;;;;;;;;;;;;5040129;28;6520;-56
2023/05/21 07:03:11;;;;;;;;;;;;;;;;;;5041885;28;5247;-59
2023/05/21 07:05:36;;;;;;;;;;;;;;;;;;5047207;28;5318;-60
2023/05/21 07:08:01;;;;;;;;;;;;;;;;;;5043450;28;4534;-60
2023/05/21 07:10:26;;;;;;;;;;;;;;;;;;5047526;28;5466;-61
2023/05/21 07:12:52;;;;;;;;;;;;;;;;;;5041945;28;4534;-61
2023/05/21 07:15:17;;;;;;;;;;;;;;;;;;5030306;28;6256;-61
2023/05/21 07:17:42;;;;;;;;;;;;;;;;;;5042337;28;5235;-62
2023/05/21 07:20:08;;;;;;;;;;;;;;;;;;5045992;28;5234;-57
2023/05/21 07:22:35;;;;;;;;;;;;;;;;;;5046734;28;5250;-62
2023/05/21 07:25:01;;;;;;;;;;;;;;;;;;5054674;28;4458;-63
2023/05/21 07:27:26;;;;;;;;;;;;;;;;;;5046463;28;4575;-60
2023/05/21 07:29:51;;;;;;;;;;;;;;;;;;5046929;28;4664;-61
2023/05/21 07:32:16;;;;;;;;;;;;;;;;;;5046908;28;5196;-62
2023/05/21 07:34:41;;;;;;;;;;;;;;;;;;5047991;28;3290;-60
2023/05/21 07:37:07;;;;;;;;;;;;;;;;;;5048209;28;4448;-65
2023/05/21 07:39:32;;;;;;;;;;;;;;;;;;5040427;28;4520;-60
2023/05/21 07:41:57;;;;;;;;;;;;;;;;;;5044744;28;4517;-62
2023/05/21 07:44:23;;;;;;;;;;;;;;;;;;5039458;28;4533;-59
2023/05/21 07:46:48;;;;;;;;;;;;;;;;;;5044544;28;3278;-61
2023/05/21 07:49:15;;;;;;;;;;;;;;;;;;5042092;28;5401;-63
2023/05/21 07:51:40;;;;;;;;;;;;;;;;;;5041698;28;4617;-61
2023/05/21 07:54:05;;;;;;;;;;;;;;;;;;5036933;28;4702;-59
2023/05/21 07:56:31;;;;;;;;;;;;;;;;;;5044373;28;4483;-61
2023/05/21 07:58:56;;;;;;;;;;;;;;;;;;5049543;28;1151;-59
2023/05/21 08:01:22;;;;;;;;;;;;;;;;;;5046974;28;4648;-61
2023/05/21 08:03:48;;;;;;;;;;;;;;;;;;5052762;28;4942;-60
2023/05/21 08:06:13;;;;;;;;;;;;;;;;;;5049413;28;5213;-63
2023/05/21 08:08:38;;;;;;;;;;;;;;;;;;5048650;28;4509;-59
2023/05/21 08:11:04;;;;;;;;;;;;;;;;;;5049458;28;2342;-62
2023/05/21 08:13:29;;;;;;;;;;;;;;;;;;5042548;28;4619;-62
2023/05/21 08:15:55;;;;;;;;;;;;;;;;;;5045341;28;4475;-62
2023/05/21 08:18:22;;;;;;;;;;;;;;;;;;5039274;28;6369;-62
2023/05/21 08:20:47;;;;;;;;;;;;;;;;;;5043608;28;5451;-62
2023/05/21 08:23:13;;;;;;;;;;;;;;;;;;5046784;28;4473;-61
2023/05/21 08:25:38;;;;;;;;;;;;;;;;;;5050303;28;5280;-62
2023/05/21 08:28:03;;;;;;;;;;;;;;;;;;5080377;28;3308;-62
2023/05/21 08:30:29;;;;;;;;;;;;;;;;;;5049138;28;4516;-62
2023/05/21 08:32:54;;;;;;;;;;;;;;;;;;5049365;28;4932;-62
2023/05/21 08:35:19;;;;;;;;;;;;;;;;;;5047092;28;5357;-62
2023/05/21 08:37:45;;;;;;;;;;;;;;;;;;5046796;28;4759;-63
2023/05/21 08:40:11;;;;;;;;;;;;;;;;;;5053218;28;3254;-62
2023/05/21 08:42:46;;;;;;;;;;;;;;;;;;5046540;28;5620;-61
2023/05/21 08:45:15;;;;;;;;;;;;;;;;;;5058438;28;5128;-64
2023/05/21 08:47:43;;;;;;;;;;;;;;;;;;5045383;28;5224;-60
2023/05/21 08:50:09;;;;;;;;;;;;;;;;;;5047723;28;4497;-61
2023/05/21 08:52:35;;;;;;;;;;;;;;;;;;5045807;28;5530;-60
2023/05/21 08:55:02;;;;;;;;;;;;;;;;;;5060268;28;4571;-60
2023/05/21 08:57:27;;;;;;;;;;;;;;;;;;5063942;28;5833;-60
2023/05/21 08:59:53;;;;;;;;;;;;;;;;;;5047937;28;4707;-61
2023/05/21 09:02:18;;;;;;;;;;;;;;;;;;5048543;28;4497;-60
2023/05/21 09:04:48;;;;;;;;;;;;;;;;;;5027563;28;5105;-60
2023/05/21 09:07:13;;;;;;;;;;;;;;;;;;5045488;28;1076;-60
2023/05/21 09:09:40;;;;;;;;;;;;;;;;;;5041258;28;4560;-60
2023/05/21 09:12:05;;;;;;;;;;;;;;;;;;5043318;28;4689;-59
2023/05/21 09:14:30;;;;;;;;;;;;;;;;;;5042059;28;5005;-61
2023/05/21 09:16:56;;;;;;;;;;;;;;;;;;5041576;28;4473;-61
2023/05/21 09:19:21;;;;;;;;;;;;;;;;;;5048139;28;3043;-60
2023/05/21 09:21:46;;;;;;;;;;;;;;;;;;5047462;28;4484;-61
2023/05/21 09:24:11;;;;;;;;;;;;;;;;;;5043777;28;5148;-61
2023/05/21 09:26:37;;;;;;;;;;;;;;;;;;5042567;28;6511;-61
2023/05/21 09:29:02;;;;;;;;;;;;;;;;;;5045287;28;4748;-61
2023/05/21 09:31:28;;;;;;;;;;;;;;;;;;5043113;28;3471;-61
2023/05/21 09:33:54;;;;;;;;;;;;;;;;;;5042991;28;4411;-61
2023/05/21 09:36:20;;;;;;;;;;;;;;;;;;5048032;28;5471;-61
2023/05/21 09:38:46;;;;;;;;;;;;;;;;;;5044849;28;5040;-62
2023/05/21 09:41:11;;;;;;;;;;;;;;;;;;5045495;28;4999;-61
2023/05/21 09:43:36;;;;;;;;;;;;;;;;;;5045798;28;3410;-61
2023/05/21 09:46:02;;;;;;;;;;;;;;;;;;5037256;28;4513;-61
2023/05/21 09:48:36;;;;;;;;;;;;;;;;;;5044269;28;4616;-61
2023/05/21 09:51:17;;;;;;;;;;;;;;;;;;5043048;28;4529;-61
2023/05/21 09:53:43;;;;;;;;;;;;;;;;;;5045361;28;5627;-60
2023/05/21 09:56:08;;;;;;;;;;;;;;;;;;5044340;28;4609;-61
2023/05/21 09:58:33;;;;;;;;;;;;;;;;;;5046711;28;1164;-61
2023/05/21 10:00:59;;;;;;;;;;;;;;;;;;5058969;28;4907;-60
2023/05/21 10:03:25;;;;;;;;;;;;;;;;;;5030279;28;4990;-58
2023/05/21 10:05:50;;;;;;;;;;;;;;;;;;5047871;28;4560;-58
2023/05/21 10:08:16;;;;;;;;;;;;;;;;;;5048710;28;4455;-57
2023/05/21 10:10:41;;;;;;;;;;;;;;;;;;5047345;28;5588;-57
2023/05/21 10:13:07;;;;;;;;;;;;;;;;;;5046190;28;1914;-57
2023/05/21 10:15:41;;;;;;;;;;;;;;;;;;5060358;28;4622;-58
2023/05/21 10:18:07;;;;;;;;;;;;;;;;;;5060525;28;5035;-58
2023/05/21 10:20:32;;;;;;;;;;;;;;;;;;5048252;28;4472;-57
2023/05/21 10:22:57;;;;;;;;;;;;;;;;;;5042817;28;4668;-58
2023/05/21 10:25:23;;;;;;;;;;;;;;;;;;5041305;28;4925;-59
2023/05/21 10:27:48;;;;;;;;;;;;;;;;;;5036285;28;4977;-57
2023/05/21 10:30:13;;;;;;;;;;;;;;;;;;5048257;28;4627;-58
2023/05/21 10:32:38;;;;;;;;;;;;;;;;;;5046907;28;4481;-57
2023/05/21 10:35:04;;;;;;;;;;;;;;;;;;5046550;28;5030;-57
2023/05/21 10:37:29;;;;;;;;;;;;;;;;;;5046862;28;1232;-57
2023/05/21 10:39:55;;;;;;;;;;;;;;;;;;5048265;28;4566;-58
2023/05/21 10:42:29;;;;;;;;;;;;;;;;;;5047620;28;4669;-59
2023/05/21 10:45:13;;;;;;;;;;;;;;;;;;5048292;28;4645;-57
2023/05/21 10:47:41;;;;;;;;;;;;;;;;;;5048112;28;5030;-58
2023/05/21 10:50:06;;;;;;;;;;;;;;;;;;5048077;28;5025;-58
2023/05/21 10:52:37;;;;;;;;;;;;;;;;;;5048881;28;2110;-57
2023/05/21 10:55:22;;;;;;;;;;;;;;;;;;5046419;28;5888;-59
2023/05/21 10:57:47;;;;;;;;;;;;;;;;;;5048248;28;5009;-57
2023/05/21 11:00:14;;;;;;;;;;;;;;;;;;5047897;28;4453;-57
2023/05/21 11:02:40;;;;;;;;;;;;;;;;;;5063324;28;4498;-57
2023/05/21 11:05:05;;;;;;;;;;;;;;;;;;5046049;28;4554;-57
2023/05/21 11:07:49;;;;;;;;;;;;;;;;;;5044016;28;1119;-57
2023/05/21 11:10:39;;;;;;;;;;;;;;;;;;5046303;28;5252;-59
2023/05/21 11:13:13;;;;;;;;;;;;;;;;;;5070537;28;5268;-57
2023/05/21 11:15:57;;;;;;;;;;;;;;;;;;5047883;28;4997;-57
2023/05/21 11:18:43;;;;;;;;;;;;;;;;;;5042938;28;4453;-57
2023/05/21 11:21:09;;;;;;;;;;;;;;;;;;5039995;28;4488;-60
2023/05/21 11:23:49;;;;;;;;;;;;;;;;;;5047099;28;4683;-57
2023/05/21 11:26:44;;;;;;;;;;;;;;;;;;5045772;28;4821;-57
2023/05/21 11:29:10;;;;;;;;;;;;;;;;;;5052709;28;4659;-57
2023/05/21 11:31:38;;;;;;;;;;;;;;;;;;5047143;28;1975;-58
2023/05/21 11:34:10;;;;;;;;;;;;;;;;;;5047726;28;5008;-58
2023/05/21 11:36:38;;;;;;;;;;;;;;;;;;5039604;28;4415;-57
2023/05/21 11:39:07;;;;;;;;;;;;;;;;;;5047165;28;4460;-59
2023/05/21 11:41:48;;;;;;;;;;;;;;;;;;5046663;28;4629;-58
2023/05/21 11:44:13;;;;;;;;;;;;;;;;;;5047779;28;5099;-58
2023/05/21 11:46:39;;;;;;;;;;;;;;;;;;5045646;28;4648;-58
2023/05/21 11:49:04;;;;;;;;;;;;;;;;;;5047983;28;1179;-59
2023/05/21 11:51:30;;;;;;;;;;;;;;;;;;5045229;28;5050;-57
2023/05/21 11:53:56;;;;;;;;;;;;;;;;;;5046635;28;4486;-60
2023/05/21 11:56:23;;;;;;;;;;;;;;;;;;5044847;28;4548;-57
2023/05/21 11:58:48;;;;;;;;;;;;;;;;;;5043283;28;4829;-58
2023/05/21 12:01:23;;;;;;;;;;;;;;;;;;5047266;28;1073;-58
2023/05/21 12:03:48;;;;;;;;;;;;;;;;;;5046862;28;4407;-58
2023/05/21 12:06:16;;;;;;;;;;;;;;;;;;5046745;28;4516;-58
2023/05/21 12:08:41;;;;;;;;;;;;;;;;;;5047084;28;5010;-59
2023/05/21 12:11:07;;;;;;;;;;;;;;;;;;5046700;28;4643;-57
2023/05/21 12:13:32;;;;;;;;;;;;;;;;;;5047177;28;2153;-58
2023/05/21 12:15:57;;;;;;;;;;;;;;;;;;5046043;28;4569;-57
2023/05/21 12:18:23;;;;;;;;;;;;;;;;;;5041183;28;4474;-58
2023/05/21 12:20:50;;;;;;;;;;;;;;;;;;5046313;28;4444;-56
2023/05/21 12:23:22;;;;;;;;;;;;;;;;;;5044264;28;5045;-57
2023/05/21 12:25:47;;;;;;;;;;;;;;;;;;5033396;28;4824;-57
2023/05/21 12:28:12;;;;;;;;;;;;;;;;;;5047318;28;1367;-58
2023/05/21 12:30:38;;;;;;;;;;;;;;;;;;5045090;28;5001;-57
2023/05/21 12:33:03;;;;;;;;;;;;;;;;;;5045273;28;6242;-59
2023/05/21 12:35:28;;;;;;;;;;;;;;;;;;5041805;28;5638;-57
2023/05/21 12:37:54;;;;;;;;;;;;;;;;;;5040456;28;5093;-57
2023/05/21 12:40:19;;;;;;;;;;;;;;;;;;5033190;28;4887;-57
2023/05/21 12:42:44;;;;;;;;;;;;;;;;;;5044381;28;5185;-58
2023/05/21 12:45:10;;;;;;;;;;;;;;;;;;5045306;28;1152;-57
2023/05/21 12:47:35;;;;;;;;;;;;;;;;;;5045424;28;4425;-57
2023/05/21 12:50:01;;;;;;;;;;;;;;;;;;5045932;28;4667;-57
2023/05/21 12:52:26;;;;;;;;;;;;;;;;;;5044999;28;5549;-58
2023/05/21 12:54:52;;;;;;;;;;;;;;;;;;5043123;28;4635;-57
2023/05/21 12:57:19;;;;;;;;;;;;;;;;;;5043440;28;4687;-57
2023/05/21 12:59:48;;;;;;;;;;;;;;;;;;5043796;28;3279;-58
2023/05/21 13:02:19;;;;;;;;;;;;;;;;;;5041151;28;4986;-57
2023/05/21 13:04:44;;;;;;;;;;;;;;;;;;5050133;28;4643;-59
2023/05/21 13:07:09;;;;;;;;;;;;;;;;;;5048328;28;5351;-60
2023/05/21 13:09:35;;;;;;;;;;;;;;;;;;5046199;28;4582;-59
2023/05/21 13:12:00;;;;;;;;;;;;;;;;;;5046909;28;3153;-60
2023/05/21 13:14:25;;;;;;;;;;;;;;;;;;5043006;28;5113;-59
2023/05/21 13:16:50;;;;;;;;;;;;;;;;;;5062014;28;5132;-60
2023/05/21 13:19:16;;;;;;;;;;;;;;;;;;5044923;28;4717;-59
2023/05/21 13:21:41;;;;;;;;;;;;;;;;;;5044640;28;4615;-60
2023/05/21 13:24:06;;;;;;;;;;;;;;;;;;5045640;28;2158;-60
2023/05/21 13:26:32;;;;;;;;;;;;;;;;;;5043911;28;4531;-62
2023/05/21 13:28:57;;;;;;;;;;;;;;;;;;5050218;28;4615;-61
2023/05/21 13:31:22;;;;;;;;;;;;;;;;;;5050111;28;4656;-61
2023/05/21 13:33:47;;;;;;;;;;;;;;;;;;5048707;28;4576;-61
2023/05/21 13:36:13;;;;;;;;;;;;;;;;;;5049083;28;1196;-63
2023/05/21 13:38:38;;;;;;;;;;;;;;;;;;5049698;28;4364;-64
2023/05/21 13:41:03;;;;;;;;;;;;;;;;;;5049731;28;4638;-66
2023/05/21 13:43:28;;;;;;;;;;;;;;;;;;5046145;28;6645;-62
2023/05/21 13:45:54;;;;;;;;;;;;;;;;;;5047376;28;4759;-61
2023/05/21 13:48:19;;;;;;;;;;;;;;;;;;5048725;28;4865;-62
2023/05/21 13:50:44;;;;;;;;;;;;;;;;;;5049019;28;2895;-60
2023/05/21 13:53:10;;;;;;;;;;;;;;;;;;5052198;28;4498;-60
2023/05/21 13:55:35;;;;;;;;;;;;;;;;;;5046565;28;4561;-59
2023/05/21 13:58:00;;;;;;;;;;;;;;;;;;5029316;28;4509;-62
2023/05/21 14:00:25;;;;;;;;;;;;;;;;;;5078258;28;5159;-59
2023/05/21 14:02:51;;;;;;;;;;;;;;;;;;5049162;28;3042;-59
2023/05/21 14:05:16;;;;;;;;;;;;;;;;;;5050203;28;4644;-60
2023/05/21 14:07:42;;;;;;;;;;;;;;;;;;5048758;28;4646;-59
2023/05/21 14:10:07;;;;;;;;;;;;;;;;;;5046498;28;4483;-57
2023/05/21 14:12:33;;;;;;;;;;;;;;;;;;5043439;28;4573;-59
2023/05/21 14:14:58;;;;;;;;;;;;;;;;;;5051310;28;3594;-57
2023/05/21 14:17:23;;;;;;;;;;;;;;;;;;5044493;28;4412;-59
2023/05/21 14:19:49;;;;;;;;;;;;;;;;;;5048680;28;4459;-58
2023/05/21 14:22:14;;;;;;;;;;;;;;;;;;5046531;28;4499;-58
2023/05/21 14:24:39;;;;;;;;;;;;;;;;;;5044290;28;4635;-59
2023/05/21 14:27:04;;;;;;;;;;;;;;;;;;5048320;28;1264;-58
2023/05/21 14:29:30;;;;;;;;;;;;;;;;;;5048592;28;4572;-58
2023/05/21 14:31:55;;;;;;;;;;;;;;;;;;5048455;28;4489;-58
2023/05/21 14:34:21;;;;;;;;;;;;;;;;;;5048648;28;5487;-59
2023/05/21 14:36:46;;;;;;;;;;;;;;;;;;5045015;28;5034;-60
2023/05/21 14:39:11;;;;;;;;;;;;;;;;;;5048207;28;1751;-59
2023/05/21 14:41:37;;;;;;;;;;;;;;;;;;5047841;28;5130;-58
2023/05/21 14:44:02;;;;;;;;;;;;;;;;;;5048340;28;4448;-58
2023/05/21 14:46:28;;;;;;;;;;;;;;;;;;5048294;28;4456;-60
2023/05/21 14:48:57;;;;;;;;;;;;;;;;;;5048361;28;4540;-59
2023/05/21 14:51:23;;;;;;;;;;;;;;;;;;5048081;28;4438;-62
2023/05/21 14:53:48;;;;;;;;;;;;;;;;;;5049042;28;1898;-59
2023/05/21 14:56:13;;;;;;;;;;;;;;;;;;5040379;28;4984;-59
2023/05/21 14:58:38;;;;;;;;;;;;;;;;;;5043856;28;4442;-58
2023/05/21 15:01:04;;;;;;;;;;;;;;;;;;5046031;28;4669;-62
2023/05/21 15:03:29;;;;;;;;;;;;;;;;;;5044598;28;4540;-58
2023/05/21 15:05:54;;;;;;;;;;;;;;;;;;5049135;28;3152;-58
2023/05/21 15:08:20;;;;;;;;;;;;;;;;;;5049065;28;5115;-59
2023/05/21 15:10:45;;;;;;;;;;;;;;;;;;5041186;28;4907;-58
2023/05/21 15:13:10;;;;;;;;;;;;;;;;;;5040821;28;5080;-58
2023/05/21 15:15:36;;;;;;;;;;;;;;;;;;5047848;28;5120;-57
2023/05/21 15:18:01;;;;;;;;;;;;;;;;;;5048475;28;3006;-60
2023/05/21 15:20:26;;;;;;;;;;;;;;;;;;5029684;28;4973;-60
2023/05/21 15:22:52;;;;;;;;;;;;;;;;;;5047548;28;4693;-58
2023/05/21 15:25:18;;;;;;;;;;;;;;;;;;5041798;28;4442;-58
2023/05/21 15:27:44;;;;;;;;;;;;;;;;;;5047348;28;5000;-58
2023/05/21 15:30:09;;;;;;;;;;;;;;;;;;5049080;28;1127;-58
2023/05/21 15:32:35;;;;;;;;;;;;;;;;;;5047854;28;5174;-60
2023/05/21 15:35:00;;;;;;;;;;;;;;;;;;5045727;28;4469;-58
2023/05/21 15:37:25;;;;;;;;;;;;;;;;;;5047520;28;5029;-59
2023/05/21 15:39:52;;;;;;;;;;;;;;;;;;5047111;28;5980;-58
2023/05/21 15:42:17;;;;;;;;;;;;;;;;;;5046599;28;5358;-59
2023/05/21 15:44:42;;;;;;;;;;;;;;;;;;5045966;28;1678;-59
2023/05/21 15:47:08;;;;;;;;;;;;;;;;;;5044513;28;5068;-59
2023/05/21 15:49:33;;;;;;;;;;;;;;;;;;5045576;28;4482;-60
2023/05/21 15:51:59;;;;;;;;;;;;;;;;;;5044926;28;5150;-59
2023/05/21 15:54:25;;;;;;;;;;;;;;;;;;5043323;28;5124;-58
2023/05/21 15:56:50;;;;;;;;;;;;;;;;;;5046853;28;1404;-59
2023/05/21 15:59:15;;;;;;;;;;;;;;;;;;5050996;28;4477;-58
2023/05/21 16:01:40;;;;;;;;;;;;;;;;;;5043790;28;4846;-59
2023/05/21 16:04:06;;;;;;;;;;;;;;;;;;5045287;28;4677;-59
2023/05/21 16:06:31;;;;;;;;;;;;;;;;;;5045698;28;5055;-59
2023/05/21 16:08:57;;;;;;;;;;;;;;;;;;5049906;28;2906;-60
2023/05/21 16:11:22;;;;;;;;;;;;;;;;;;5046511;28;4562;-62
2023/05/21 16:13:47;;;;;;;;;;;;;;;;;;5040374;28;5071;-55
2023/05/21 16:16:12;;;;;;;;;;;;;;;;;;5045840;28;4517;-59
2023/05/21 16:18:38;;;;;;;;;;;;;;;;;;5036366;28;4529;-59
2023/05/21 16:21:03;;;;;;;;;;;;;;;;;;5045978;28;4520;-58
2023/05/21 16:23:28;;;;;;;;;;;;;;;;;;5044181;28;4977;-57
2023/05/21 16:25:53;;;;;;;;;;;;;;;;;;5042585;28;4558;-58
2023/05/21 16:28:19;;;;;;;;;;;;;;;;;;5042986;28;4490;-57
2023/05/21 16:30:44;;;;;;;;;;;;;;;;;;5043685;28;4550;-57
2023/05/21 16:33:11;;;;;;;;;;;;;;;;;;5043928;28;3254;-57
2023/05/21 16:35:36;;;;;;;;;;;;;;;;;;5041514;28;4680;-57
2023/05/21 16:38:01;;;;;;;;;;;;;;;;;;5042834;28;5150;-57
2023/05/21 16:40:27;;;;;;;;;;;;;;;;;;5042519;28;4694;-58
2023/05/21 16:42:52;;;;;;;;;;;;;;;;;;5041714;28;5375;-57
2023/05/21 16:45:20;;;;;;;;;;;;;;;;;;5044597;28;4634;-57
2023/05/21 16:47:49;;;;;;;;;;;;;;;;;;5046730;28;2201;-54
2023/05/21 16:50:14;;;;;;;;;;;;;;;;;;5045198;28;4627;-55
2023/05/21 16:52:39;;;;;;;;;;;;;;;;;;5042136;28;4752;-57
2023/05/21 16:55:05;;;;;;;;;;;;;;;;;;5038712;28;4517;-57